createdAt,value
2023-02-28T00:00:08.776Z,116943.30
2023-02-28T00:01:10.982Z,116811.96
2023-02-28T00:02:13.400Z,116943.30
2023-02-28T00:03:15.893Z,116943.30
2023-02-28T00:04:18.345Z,116943.30
2023-02-28T00:05:20.781Z,116943.30
2023-02-28T00:06:23.729Z,116943.30
2023-02-28T00:07:26.125Z,116943.30
2023-02-28T00:08:28.553Z,116943.30
2023-02-28T00:09:31.067Z,116943.30
2023-02-28T00:10:33.498Z,116943.30
2023-02-28T00:11:35.917Z,116943.30
2023-02-28T00:12:38.337Z,116943.30
2023-02-28T00:13:40.776Z,116943.30
2023-02-28T00:14:43.135Z,116943.30
2023-02-28T00:15:45.568Z,116943.30
2023-02-28T00:16:48.132Z,116943.30
2023-02-28T00:17:50.630Z,116943.30
2023-02-28T00:18:53.098Z,116943.30
2023-02-28T00:19:55.689Z,116943.30
2023-02-28T00:20:58.070Z,116943.30
2023-02-28T00:22:00.523Z,116943.30
2023-02-28T00:23:02.960Z,116943.30
2023-02-28T00:24:05.382Z,116943.30
2023-02-28T00:25:07.822Z,116943.30
2023-02-28T00:26:10.276Z,116943.30
2023-02-28T00:27:12.740Z,116943.30
2023-02-28T00:28:15.264Z,116943.30
2023-02-28T00:29:17.740Z,116943.30
2023-02-28T00:30:20.238Z,116943.30
2023-02-28T00:31:22.771Z,116943.30
2023-02-28T00:32:25.214Z,116943.30
2023-02-28T00:33:27.598Z,116943.30
2023-02-28T00:34:30.036Z,116943.30
2023-02-28T00:35:32.632Z,116943.30
2023-02-28T00:36:35.099Z,116943.30
2023-02-28T00:37:37.478Z,116943.30
2023-02-28T00:38:39.984Z,116943.30
2023-02-28T00:39:42.445Z,116943.30
2023-02-28T00:40:44.888Z,116943.30
2023-02-28T00:41:47.352Z,116943.30
2023-02-28T00:42:49.842Z,116943.30
2023-02-28T00:43:52.345Z,116943.30
2023-02-28T00:44:54.767Z,116943.30
2023-02-28T00:45:57.263Z,116943.30
2023-02-28T00:46:59.697Z,116943.30
2023-02-28T00:48:02.273Z,116943.30
2023-02-28T00:49:04.829Z,116943.30
2023-02-28T00:50:07.325Z,116943.30
2023-02-28T00:51:09.900Z,116943.30
2023-02-28T00:52:12.382Z,116943.30
2023-02-28T00:53:14.798Z,116943.30
2023-02-28T00:54:17.027Z,116943.30
2023-02-28T00:55:19.550Z,116943.30
2023-02-28T00:56:22.241Z,116943.30
2023-02-28T00:57:24.729Z,116943.30
2023-02-28T00:58:27.529Z,116943.30
2023-02-28T00:59:30.111Z,116943.30
2023-02-28T01:00:32.603Z,116943.30
2023-02-28T01:01:35.084Z,116943.30
2023-02-28T01:02:37.528Z,116943.30
2023-02-28T01:03:39.986Z,116943.30
2023-02-28T01:04:42.557Z,116551.34
2023-02-28T01:05:45.093Z,112253.59
2023-02-28T01:06:47.662Z,116942.28
2023-02-28T01:07:50.150Z,116943.30
2023-02-28T01:08:52.600Z,116943.30
2023-02-28T01:09:55.032Z,116943.30
2023-02-28T01:10:57.598Z,116943.30
2023-02-28T01:12:00.377Z,116943.30
2023-02-28T01:13:02.820Z,116943.30
2023-02-28T01:14:05.209Z,114727.50
2023-02-28T01:15:07.611Z,111212.39
2023-02-28T01:16:10.140Z,116290.75
2023-02-28T01:17:12.762Z,116943.30
2023-02-28T01:18:15.168Z,116943.30
2023-02-28T01:19:17.842Z,116290.75
2023-02-28T01:20:20.586Z,116943.30
2023-02-28T01:21:23.108Z,116943.30
2023-02-28T01:22:25.660Z,116943.30
2023-02-28T01:23:28.121Z,116943.30
2023-02-28T01:24:30.574Z,116943.30
2023-02-28T01:25:33.126Z,116943.30
2023-02-28T01:26:35.691Z,116943.30
2023-02-28T01:27:38.366Z,116943.30
2023-02-28T01:28:40.806Z,116943.30
2023-02-28T01:29:43.376Z,116943.30
2023-02-28T01:30:45.813Z,116943.30
2023-02-28T01:31:48.387Z,116943.30
2023-02-28T01:32:51.075Z,116943.30
2023-02-28T01:33:53.500Z,116943.30
2023-02-28T01:34:55.931Z,116943.30
2023-02-28T01:35:58.456Z,116943.30
2023-02-28T01:37:00.949Z,116943.30
2023-02-28T01:38:20.397Z,116943.30
2023-02-28T01:40:24.007Z,115509.05
2023-02-28T01:41:26.544Z,114727.50
2023-02-28T01:42:29.232Z,116942.28
2023-02-28T01:43:31.856Z,116943.30
2023-02-28T01:44:34.480Z,116943.30
2023-02-28T01:45:36.953Z,116943.30
2023-02-28T01:46:39.403Z,116943.30
2023-02-28T01:47:41.941Z,116943.30
2023-02-28T01:48:44.572Z,116943.30
2023-02-28T01:49:47.090Z,116943.30
2023-02-28T01:50:49.503Z,116943.30
2023-02-28T01:51:52.111Z,116943.30
2023-02-28T01:52:54.525Z,115378.78
2023-02-28T01:53:57.095Z,108220.42
2023-02-28T01:54:59.818Z,110041.36
2023-02-28T01:56:02.232Z,113946.10
2023-02-28T01:57:04.933Z,112123.42
2023-02-28T01:58:07.338Z,110431.66
2023-02-28T01:59:09.863Z,109781.17
2023-02-28T02:00:12.426Z,109000.72
2023-02-28T02:01:15.001Z,116943.30
2023-02-28T02:02:17.452Z,116943.30
2023-02-28T02:03:20.003Z,116943.30
2023-02-28T02:04:22.713Z,116943.30
2023-02-28T02:05:25.173Z,116551.34
2023-02-28T02:06:27.605Z,116160.45
2023-02-28T02:07:30.081Z,114857.75
2023-02-28T02:08:32.598Z,114336.78
2023-02-28T02:09:35.059Z,116943.30
2023-02-28T02:10:37.464Z,116943.30
2023-02-28T02:11:39.878Z,116943.30
2023-02-28T02:12:42.270Z,116811.96
2023-02-28T02:13:44.831Z,116943.30
2023-02-28T02:14:47.363Z,116943.30
2023-02-28T02:15:49.873Z,116943.30
2023-02-28T02:16:52.309Z,116943.30
2023-02-28T02:17:54.769Z,115248.52
2023-02-28T02:18:57.165Z,114467.02
2023-02-28T02:21:15.668Z,116943.30
2023-02-28T02:22:18.450Z,115509.05
2023-02-28T02:23:20.910Z,114597.26
2023-02-28T02:24:23.405Z,116943.30
2023-02-28T02:25:25.895Z,116943.30
2023-02-28T02:26:28.329Z,116943.30
2023-02-28T02:27:30.794Z,116030.16
2023-02-28T02:28:33.249Z,113815.89
2023-02-28T02:29:35.705Z,112513.92
2023-02-28T02:30:38.345Z,113555.46
2023-02-28T02:31:40.877Z,116943.30
2023-02-28T02:32:43.285Z,116943.30
2023-02-28T02:33:45.792Z,116943.30
2023-02-28T02:34:48.316Z,116943.30
2023-02-28T02:35:51.121Z,116943.30
2023-02-28T02:36:53.382Z,114467.02
2023-02-28T02:37:55.816Z,116551.34
2023-02-28T02:38:58.237Z,116681.65
2023-02-28T02:40:00.709Z,116421.05
2023-02-28T02:41:03.149Z,115639.32
2023-02-28T02:42:05.551Z,115378.78
2023-02-28T02:43:08.072Z,116681.65
2023-02-28T02:44:10.515Z,116943.30
2023-02-28T02:45:12.952Z,116943.30
2023-02-28T02:46:15.366Z,116943.30
2023-02-28T02:47:17.863Z,116943.30
2023-02-28T02:48:20.327Z,116943.30
2023-02-28T02:49:22.827Z,116943.30
2023-02-28T02:50:25.290Z,116943.30
2023-02-28T02:52:43.756Z,116943.30
2023-02-28T02:53:46.187Z,116943.30
2023-02-28T02:54:48.631Z,116943.30
2023-02-28T02:55:51.034Z,116943.30
2023-02-28T02:56:53.585Z,116943.30
2023-02-28T02:57:56.027Z,116943.30
2023-02-28T02:58:58.493Z,116943.30
2023-02-28T03:00:00.758Z,116681.65
2023-02-28T03:01:03.259Z,115378.78
2023-02-28T03:02:06.024Z,116943.30
2023-02-28T03:03:08.793Z,116943.30
2023-02-28T03:04:11.227Z,116943.30
2023-02-28T03:05:13.720Z,116943.30
2023-02-28T03:06:16.286Z,116943.30
2023-02-28T03:07:18.839Z,116943.30
2023-02-28T03:08:21.283Z,116943.30
2023-02-28T03:09:23.740Z,116943.30
2023-02-28T03:10:25.913Z,116943.30
2023-02-28T03:11:28.559Z,116943.30
2023-02-28T03:12:31.353Z,116943.30
2023-02-28T03:13:33.812Z,116943.30
2023-02-28T03:14:36.305Z,116943.30
2023-02-28T03:15:38.705Z,116943.30
2023-02-28T03:16:41.114Z,116943.30
2023-02-28T03:17:43.597Z,116943.30
2023-02-28T03:18:46.064Z,116943.30
2023-02-28T03:19:48.623Z,116943.30
2023-02-28T03:20:50.849Z,116943.30
2023-02-28T03:21:53.304Z,116943.30
2023-02-28T03:22:55.959Z,116942.28
2023-02-28T03:23:58.378Z,115248.52
2023-02-28T03:25:00.823Z,116943.30
2023-02-28T03:26:03.292Z,116943.30
2023-02-28T03:27:05.783Z,116943.30
2023-02-28T03:28:08.556Z,116811.96
2023-02-28T03:30:27.084Z,116681.65
2023-02-28T03:31:29.852Z,116943.30
2023-02-28T03:32:32.553Z,116943.30
2023-02-28T03:33:35.192Z,116943.30
2023-02-28T03:34:37.617Z,116943.30
2023-02-28T03:35:40.071Z,116943.30
2023-02-28T03:36:42.518Z,116943.30
2023-02-28T03:37:45.070Z,116943.30
2023-02-28T03:38:47.289Z,116943.30
2023-02-28T03:39:49.734Z,116943.30
2023-02-28T03:40:52.278Z,115899.87
2023-02-28T03:41:54.730Z,116943.30
2023-02-28T03:42:57.481Z,116943.30
2023-02-28T03:44:00.017Z,116943.30
2023-02-28T03:45:02.515Z,116943.30
2023-02-28T03:46:05.010Z,116943.30
2023-02-28T03:47:07.609Z,116943.30
2023-02-28T03:48:10.107Z,116943.30
2023-02-28T03:49:12.816Z,116943.30
2023-02-28T03:50:15.260Z,116943.30
2023-02-28T03:51:17.681Z,116943.30
2023-02-28T03:52:20.091Z,116943.30
2023-02-28T03:53:22.552Z,116943.30
2023-02-28T03:54:25.129Z,116943.30
2023-02-28T03:55:27.560Z,116943.30
2023-02-28T03:56:30.207Z,116943.30
2023-02-28T03:57:32.625Z,116943.30
2023-02-28T03:58:35.140Z,116943.30
2023-02-28T03:59:37.645Z,116943.30
2023-02-28T04:00:40.051Z,116943.30
2023-02-28T04:01:42.679Z,116943.30
2023-02-28T04:02:45.245Z,116943.30
2023-02-28T04:03:47.739Z,115639.32
2023-02-28T04:05:57.643Z,116943.30
2023-02-28T04:07:00.313Z,116421.05
2023-02-28T04:08:02.717Z,116943.30
2023-02-28T04:09:05.144Z,116943.30
2023-02-28T04:10:07.693Z,114988.00
2023-02-28T04:11:10.118Z,116942.28
2023-02-28T04:12:12.524Z,116943.30
2023-02-28T04:13:14.949Z,116943.30
2023-02-28T04:14:17.173Z,116943.30
2023-02-28T04:15:19.871Z,116943.30
2023-02-28T04:16:34.337Z,116943.30
2023-02-28T04:17:26.382Z,116943.30
2023-02-28T04:18:28.842Z,116943.30
2023-02-28T04:19:31.253Z,116943.30
2023-02-28T04:20:33.898Z,116943.30
2023-02-28T04:21:36.432Z,116943.30
2023-02-28T04:22:38.934Z,116943.30
2023-02-28T04:24:57.840Z,116943.30
2023-02-28T04:26:00.400Z,116943.30
2023-02-28T04:27:02.882Z,116943.30
2023-02-28T04:28:05.483Z,116943.30
2023-02-28T04:29:07.990Z,116943.30
2023-02-28T04:30:10.500Z,116943.30
2023-02-28T04:31:13.135Z,116943.30
2023-02-28T04:32:15.732Z,116943.30
2023-02-28T04:33:18.332Z,116943.30
2023-02-28T04:34:20.897Z,116943.30
2023-02-28T04:35:23.418Z,116943.30
2023-02-28T04:36:25.991Z,116943.30
2023-02-28T04:38:35.958Z,116943.30
2023-02-28T04:39:38.409Z,116943.30
2023-02-28T04:40:40.888Z,116943.30
2023-02-28T04:41:43.335Z,116943.30
2023-02-28T04:42:45.882Z,116943.30
2023-02-28T04:43:48.353Z,116943.30
2023-02-28T04:44:50.840Z,116943.30
2023-02-28T04:45:53.466Z,116943.30
2023-02-28T04:46:56.173Z,115118.26
2023-02-28T04:47:58.635Z,116943.30
2023-02-28T04:49:01.047Z,116942.28
2023-02-28T04:50:03.563Z,113295.05
2023-02-28T04:51:05.921Z,116290.75
2023-02-28T04:52:08.611Z,116943.30
2023-02-28T04:53:11.135Z,116943.30
2023-02-28T04:54:13.546Z,116943.30
2023-02-28T04:55:15.960Z,116943.30
2023-02-28T04:56:18.143Z,116943.30
2023-02-28T04:57:20.777Z,116943.30
2023-02-28T04:58:23.256Z,116943.30
2023-02-28T04:59:25.712Z,116943.30
2023-02-28T05:00:28.229Z,116551.34
2023-02-28T05:01:31.080Z,116681.65
2023-02-28T05:02:34.011Z,116681.65
2023-02-28T05:03:36.544Z,116030.16
2023-02-28T05:04:39.011Z,115378.78
2023-02-28T05:05:41.505Z,115248.52
2023-02-28T05:06:44.508Z,116943.30
2023-02-28T05:07:46.948Z,116943.30
2023-02-28T05:08:49.433Z,116943.30
2023-02-28T05:09:51.914Z,116943.30
2023-02-28T05:10:54.299Z,116943.30
2023-02-28T05:13:06.910Z,116943.30
2023-02-28T05:14:09.124Z,116943.30
2023-02-28T05:15:11.514Z,116943.30
2023-02-28T05:16:14.205Z,116943.30
2023-02-28T05:17:16.795Z,116943.30
2023-02-28T05:18:19.416Z,116943.30
2023-02-28T05:19:21.834Z,116943.30
2023-02-28T05:21:34.443Z,116943.30
2023-02-28T05:22:36.900Z,116943.30
2023-02-28T05:23:39.489Z,116943.30
2023-02-28T05:24:42.032Z,116943.30
2023-02-28T05:25:44.526Z,116943.30
2023-02-28T05:26:46.966Z,116943.30
2023-02-28T05:27:49.436Z,116943.30
2023-02-28T05:28:52.011Z,116943.30
2023-02-28T05:29:54.393Z,116943.30
2023-02-28T05:30:56.949Z,116943.30
2023-02-28T05:31:59.569Z,116943.30
2023-02-28T05:33:02.046Z,116943.30
2023-02-28T05:34:04.719Z,116943.30
2023-02-28T05:35:07.152Z,116943.30
2023-02-28T05:36:09.545Z,116943.30
2023-02-28T05:37:11.969Z,116943.30
2023-02-28T05:38:14.345Z,116943.30
2023-02-28T05:39:17.011Z,116943.30
2023-02-28T05:40:19.610Z,116943.30
2023-02-28T05:41:22.116Z,116943.30
2023-02-28T05:42:24.722Z,116943.30
2023-02-28T05:43:27.240Z,116943.30
2023-02-28T05:44:29.743Z,116943.30
2023-02-28T05:45:32.203Z,116943.30
2023-02-28T05:46:34.713Z,116943.30
2023-02-28T05:47:37.146Z,116943.30
2023-02-28T05:48:39.652Z,116943.30
2023-02-28T05:49:42.238Z,116943.30
2023-02-28T05:51:51.733Z,116943.30
2023-02-28T05:52:54.153Z,116943.30
2023-02-28T05:53:56.652Z,116943.30
2023-02-28T05:54:59.335Z,116943.30
2023-02-28T05:57:18.922Z,116943.30
2023-02-28T05:58:13.400Z,116943.30
2023-02-28T05:59:16.008Z,116943.30
2023-02-28T06:00:18.483Z,116943.30
2023-02-28T06:01:21.102Z,116943.30
2023-02-28T06:02:23.637Z,116943.30
2023-02-28T06:03:26.257Z,116943.30
2023-02-28T06:04:32.149Z,116943.30
2023-02-28T06:05:33.085Z,116943.30
2023-02-28T06:06:37.089Z,116943.30
2023-02-28T06:07:39.963Z,116943.30
2023-02-28T06:08:42.384Z,116943.30
2023-02-28T06:09:44.913Z,116943.30
2023-02-28T06:10:47.409Z,116943.30
2023-02-28T06:11:49.851Z,116943.30
2023-02-28T06:12:52.400Z,116943.30
2023-02-28T06:13:54.873Z,116943.30
2023-02-28T06:14:57.260Z,116943.30
2023-02-28T06:15:59.896Z,116943.30
2023-02-28T06:17:02.416Z,116943.30
2023-02-28T06:18:04.900Z,116943.30
2023-02-28T06:19:07.441Z,116943.30
2023-02-28T06:20:09.903Z,116943.30
2023-02-28T06:21:12.391Z,116943.30
2023-02-28T06:22:14.977Z,116943.30
2023-02-28T06:23:17.198Z,116943.30
2023-02-28T06:24:19.377Z,116943.30
2023-02-28T06:25:21.854Z,116943.30
2023-02-28T06:27:40.148Z,116943.30
2023-02-28T06:28:42.579Z,116943.30
2023-02-28T06:29:45.034Z,116943.30
2023-02-28T06:30:47.522Z,116943.30
2023-02-28T06:31:50.245Z,116943.30
2023-02-28T06:32:52.781Z,116943.30
2023-02-28T06:33:55.050Z,116943.30
2023-02-28T06:34:57.300Z,116943.30
2023-02-28T06:35:59.570Z,116943.30
2023-02-28T06:37:02.058Z,116943.30
2023-02-28T06:38:04.327Z,116943.30
2023-02-28T06:39:06.743Z,116943.30
2023-02-28T06:40:09.376Z,116943.30
2023-02-28T06:41:11.898Z,116943.30
2023-02-28T06:43:31.220Z,116943.30
2023-02-28T06:44:33.548Z,116943.30
2023-02-28T06:45:35.797Z,116943.30
2023-02-28T06:46:37.985Z,116943.30
2023-02-28T06:47:40.628Z,116943.30
2023-02-28T06:48:42.976Z,116943.30
2023-02-28T06:49:45.488Z,116943.30
2023-02-28T06:50:47.885Z,116943.30
2023-02-28T06:51:50.303Z,116943.30
2023-02-28T06:52:53.020Z,116943.30
2023-02-28T06:53:55.417Z,116943.30
2023-02-28T06:54:57.812Z,116943.30
2023-02-28T06:56:00.215Z,116943.30
2023-02-28T06:57:02.694Z,116943.30
2023-02-28T06:58:05.221Z,116943.30
2023-02-28T06:59:07.698Z,116943.30
2023-02-28T07:00:10.105Z,116943.30
2023-02-28T07:01:12.624Z,116943.30
2023-02-28T07:02:15.195Z,116943.30
2023-02-28T07:03:17.792Z,116943.30
2023-02-28T07:04:20.381Z,116943.30
2023-02-28T07:05:22.864Z,116943.30
2023-02-28T07:06:25.086Z,116943.30
2023-02-28T07:07:27.253Z,116943.30
2023-02-28T07:08:29.482Z,116943.30
2023-02-28T07:09:31.712Z,116943.30
2023-02-28T07:10:33.973Z,116943.30
2023-02-28T07:11:36.180Z,116943.30
2023-02-28T07:12:38.726Z,116943.30
2023-02-28T07:13:41.314Z,116943.30
2023-02-28T07:15:51.402Z,116943.30
2023-02-28T07:16:53.834Z,116943.30
2023-02-28T07:17:56.227Z,116943.30
2023-02-28T07:18:58.705Z,116943.30
2023-02-28T07:20:01.164Z,116943.30
2023-02-28T07:21:03.765Z,116943.30
2023-02-28T07:22:06.404Z,116943.30
2023-02-28T07:23:08.866Z,116943.30
2023-02-28T07:24:11.522Z,116943.30
2023-02-28T07:25:14.024Z,116943.30
2023-02-28T07:26:16.510Z,116943.30
2023-02-28T07:27:25.079Z,116943.30
2023-02-28T07:28:27.513Z,116943.30
2023-02-28T07:29:30.002Z,116943.30
2023-02-28T07:30:32.538Z,116943.30
2023-02-28T07:31:35.049Z,116943.30
2023-02-28T07:32:37.544Z,116943.30
2023-02-28T07:33:39.987Z,116943.30
2023-02-28T07:34:42.548Z,116943.30
2023-02-28T07:35:45.140Z,116943.30
2023-02-28T07:36:47.715Z,116943.30
2023-02-28T07:37:50.137Z,116943.30
2023-02-28T07:38:53.485Z,116943.30
2023-02-28T07:39:55.741Z,116943.30
2023-02-28T07:40:58.006Z,116943.30
2023-02-28T07:42:00.185Z,116943.30
2023-02-28T07:44:18.339Z,116943.30
2023-02-28T07:45:20.971Z,116943.30
2023-02-28T07:46:23.477Z,116943.30
2023-02-28T07:47:27.496Z,116943.30
2023-02-28T07:48:29.705Z,116943.30
2023-02-28T07:49:31.912Z,116943.30
2023-02-28T07:50:34.311Z,116943.30
2023-02-28T07:51:36.622Z,116943.30
2023-02-28T07:52:38.855Z,116943.30
2023-02-28T07:53:41.078Z,116943.30
2023-02-28T07:54:43.532Z,116943.30
2023-02-28T07:55:46.238Z,116943.30
2023-02-28T07:56:48.796Z,116943.30
2023-02-28T07:57:51.378Z,116943.30
2023-02-28T07:58:53.808Z,116943.30
2023-02-28T07:59:56.379Z,116943.30
2023-02-28T08:00:58.886Z,116943.30
2023-02-28T08:02:01.440Z,116943.30
2023-02-28T08:03:03.971Z,116943.30
2023-02-28T08:04:06.488Z,116943.30
2023-02-28T08:05:08.841Z,116943.30
2023-02-28T08:06:11.390Z,116943.30
2023-02-28T08:07:13.797Z,116943.30
2023-02-28T08:08:16.318Z,116943.30
2023-02-28T08:09:18.842Z,116943.30
2023-02-28T08:10:21.227Z,116943.30
2023-02-28T08:11:23.889Z,116943.30
2023-02-28T08:12:26.089Z,116943.30
2023-02-28T08:13:28.271Z,116943.30
2023-02-28T08:14:30.539Z,116943.30
2023-02-28T08:15:32.813Z,116943.30
2023-02-28T08:16:35.190Z,116943.30
2023-02-28T08:17:37.485Z,116943.30
2023-02-28T08:19:46.974Z,116943.30
2023-02-28T08:20:49.640Z,116943.30
2023-02-28T08:21:52.057Z,116943.30
2023-02-28T08:22:54.496Z,116943.30
2023-02-28T08:23:56.935Z,116943.30
2023-02-28T08:26:07.715Z,116943.30
2023-02-28T08:27:10.178Z,116943.30
2023-02-28T08:28:12.600Z,116943.30
2023-02-28T08:29:15.184Z,116943.30
2023-02-28T08:30:17.612Z,116943.30
2023-02-28T08:31:20.138Z,116943.30
2023-02-28T08:32:29.951Z,116943.30
2023-02-28T08:33:26.847Z,116943.30
2023-02-28T08:34:29.067Z,116943.30
2023-02-28T08:35:31.647Z,116943.30
2023-02-28T08:36:34.245Z,116943.30
2023-02-28T08:37:36.837Z,116943.30
2023-02-28T08:38:39.286Z,116943.30
2023-02-28T08:39:41.971Z,116943.30
2023-02-28T08:40:47.581Z,116943.30
2023-02-28T08:42:02.199Z,116943.30
2023-02-28T08:42:53.914Z,116943.30
2023-02-28T08:43:56.127Z,116943.30
2023-02-28T08:44:58.432Z,116943.30
2023-02-28T08:46:00.833Z,116943.30
2023-02-28T08:47:03.072Z,116943.30
2023-02-28T08:48:05.566Z,116943.30
2023-02-28T08:49:07.995Z,116943.30
2023-02-28T08:50:10.417Z,116943.30
2023-02-28T08:52:28.657Z,116943.30
2023-02-28T08:53:30.991Z,116943.30
2023-02-28T08:54:33.139Z,116943.30
2023-02-28T08:55:35.614Z,116943.30
2023-02-28T08:56:38.046Z,116943.30
2023-02-28T08:57:40.494Z,116943.30
2023-02-28T08:58:43.045Z,116943.30
2023-02-28T08:59:45.509Z,116943.30
2023-02-28T09:00:48.007Z,116943.30
2023-02-28T09:01:50.443Z,116943.30
2023-02-28T09:02:52.889Z,116943.30
2023-02-28T09:04:59.420Z,116943.30
2023-02-28T09:06:01.861Z,116943.30
2023-02-28T09:07:04.326Z,116943.30
2023-02-28T09:08:06.721Z,116943.30
2023-02-28T09:09:09.236Z,116943.30
2023-02-28T09:10:11.669Z,116943.30
2023-02-28T09:11:14.149Z,116943.30
2023-02-28T09:12:16.656Z,116943.30
2023-02-28T09:13:19.145Z,116943.30
2023-02-28T09:14:21.736Z,116943.30
2023-02-28T09:15:24.291Z,116943.30
2023-02-28T09:16:26.804Z,116943.30
2023-02-28T09:17:30.626Z,116943.30
2023-02-28T09:18:33.401Z,116943.30
2023-02-28T09:19:36.124Z,116943.30
2023-02-28T09:20:38.642Z,116943.30
2023-02-28T09:21:40.915Z,116943.30
2023-02-28T09:22:43.325Z,116943.30
2023-02-28T09:23:45.777Z,116943.30
2023-02-28T09:24:48.581Z,116943.30
2023-02-28T09:25:51.048Z,116943.30
2023-02-28T09:28:06.319Z,116943.30
2023-02-28T09:29:08.740Z,116943.30
2023-02-28T09:30:11.299Z,116943.30
2023-02-28T09:31:13.905Z,116943.30
2023-02-28T09:32:16.521Z,116943.30
2023-02-28T09:33:18.921Z,116943.30
2023-02-28T09:34:21.170Z,116943.30
2023-02-28T09:35:23.555Z,116943.30
2023-02-28T09:36:34.526Z,116943.30
2023-02-28T09:37:29.636Z,116943.30
2023-02-28T09:38:31.886Z,116943.30
2023-02-28T09:39:34.175Z,116943.30
2023-02-28T09:40:36.424Z,116943.30
2023-02-28T09:41:38.611Z,116943.30
2023-02-28T09:42:40.782Z,116943.30
2023-02-28T09:43:43.204Z,116943.30
2023-02-28T09:44:45.735Z,116943.30
2023-02-28T09:45:48.333Z,116943.30
2023-02-28T09:46:50.741Z,116943.30
2023-02-28T09:47:53.209Z,116943.30
2023-02-28T09:48:55.646Z,116943.30
2023-02-28T09:49:58.071Z,116943.30
2023-02-28T09:51:01.096Z,116943.30
2023-02-28T09:52:03.548Z,116943.30
2023-02-28T09:53:06.040Z,116943.30
2023-02-28T09:55:24.282Z,116943.30
2023-02-28T09:56:26.568Z,116943.30
2023-02-28T09:57:29.125Z,116943.30
2023-02-28T09:58:31.411Z,116943.30
2023-02-28T09:59:33.910Z,116943.30
2023-02-28T10:00:36.459Z,116943.30
2023-02-28T10:01:39.016Z,116943.30
2023-02-28T10:02:41.433Z,116943.30
2023-02-28T10:03:43.888Z,116943.30
2023-02-28T10:04:46.559Z,116943.30
2023-02-28T10:05:49.078Z,116943.30
2023-02-28T10:06:51.834Z,116943.30
2023-02-28T10:07:54.277Z,116943.30
2023-02-28T10:08:56.721Z,116943.30
2023-02-28T10:09:59.268Z,116943.30
2023-02-28T10:11:01.666Z,116943.30
2023-02-28T10:12:04.223Z,116943.30
2023-02-28T10:13:06.628Z,116943.30
2023-02-28T10:14:09.099Z,116943.30
2023-02-28T10:15:11.554Z,116943.30
2023-02-28T10:16:14.107Z,116943.30
2023-02-28T10:17:16.823Z,116943.30
2023-02-28T10:19:29.756Z,116943.30
2023-02-28T10:20:32.207Z,116943.30
2023-02-28T10:21:34.791Z,116943.30
2023-02-28T10:22:37.116Z,116943.30
2023-02-28T10:23:39.551Z,116943.30
2023-02-28T10:24:41.968Z,116943.30
2023-02-28T10:25:44.433Z,116943.30
2023-02-28T10:26:46.898Z,116943.30
2023-02-28T10:27:49.377Z,116943.30
2023-02-28T10:28:51.786Z,116943.30
2023-02-28T10:29:54.173Z,116943.30
2023-02-28T10:30:56.581Z,116943.30
2023-02-28T10:31:59.246Z,116943.30
2023-02-28T10:33:02.324Z,116943.30
2023-02-28T10:34:04.871Z,116943.30
2023-02-28T10:35:07.311Z,116943.30
2023-02-28T10:36:09.707Z,116943.30
2023-02-28T10:37:12.180Z,116943.30
2023-02-28T10:38:14.731Z,116943.30
2023-02-28T10:40:32.959Z,116943.30
2023-02-28T10:41:35.384Z,116943.30
2023-02-28T10:42:37.811Z,116943.30
2023-02-28T10:43:40.379Z,116943.30
2023-02-28T10:44:42.803Z,116943.30
2023-02-28T10:45:45.291Z,116943.30
2023-02-28T10:46:47.962Z,116943.30
2023-02-28T10:47:50.482Z,116943.30
2023-02-28T10:49:02.602Z,116943.30
2023-02-28T10:50:05.697Z,116943.30
2023-02-28T10:51:08.843Z,116943.30
2023-02-28T10:52:12.328Z,116943.30
2023-02-28T10:53:15.455Z,116943.30
2023-02-28T10:54:19.012Z,116943.30
2023-02-28T10:55:22.198Z,116943.30
2023-02-28T10:56:25.482Z,116943.30
2023-02-28T10:57:28.566Z,116943.30
2023-02-28T10:58:31.732Z,116943.30
2023-02-28T10:59:34.914Z,116943.30
2023-02-28T11:00:38.008Z,116943.30
2023-02-28T11:01:40.966Z,116943.30
2023-02-28T11:02:44.002Z,116943.30
2023-02-28T11:03:47.479Z,116943.30
2023-02-28T11:04:50.733Z,116943.30
2023-02-28T11:05:53.906Z,116943.30
2023-02-28T11:06:56.987Z,116943.30
2023-02-28T11:07:59.854Z,116943.30
2023-02-28T11:09:03.130Z,116943.30
2023-02-28T11:10:06.529Z,116943.30
2023-02-28T11:11:09.693Z,116943.30
2023-02-28T11:12:12.823Z,116943.30
2023-02-28T11:13:15.976Z,116943.30
2023-02-28T11:14:18.950Z,116943.30
2023-02-28T11:15:22.554Z,116943.30
2023-02-28T11:16:25.663Z,116943.30
2023-02-28T11:17:28.794Z,116943.30
2023-02-28T11:18:32.075Z,116943.30
2023-02-28T11:19:35.158Z,116943.30
2023-02-28T11:20:38.467Z,116943.30
2023-02-28T11:21:41.524Z,116943.30
2023-02-28T11:22:44.610Z,116943.30
2023-02-28T11:23:47.701Z,116943.30
2023-02-28T11:24:51.202Z,116943.30
2023-02-28T11:25:54.361Z,116943.30
2023-02-28T11:26:57.356Z,116943.30
2023-02-28T11:28:00.267Z,116943.30
2023-02-28T11:29:04.039Z,116943.30
2023-02-28T11:30:06.765Z,116943.30
2023-02-28T11:31:09.593Z,116943.30
2023-02-28T11:32:12.682Z,116943.30
2023-02-28T11:33:15.803Z,116943.30
2023-02-28T11:34:18.791Z,116943.30
2023-02-28T11:35:21.852Z,116943.30
2023-02-28T11:36:25.340Z,116943.30
2023-02-28T11:37:28.170Z,116943.30
2023-02-28T11:38:31.025Z,116943.30
2023-02-28T11:39:34.077Z,116943.30
2023-02-28T11:40:37.265Z,116943.30
2023-02-28T11:41:41.390Z,116943.30
2023-02-28T11:42:44.490Z,116943.30
2023-02-28T11:43:47.513Z,116943.30
2023-02-28T11:44:50.387Z,116943.30
2023-02-28T11:45:53.189Z,116943.30
2023-02-28T11:46:56.285Z,116943.30
2023-02-28T11:47:59.418Z,116943.30
2023-02-28T11:49:02.809Z,116943.30
2023-02-28T11:50:06.023Z,116943.30
2023-02-28T11:51:09.085Z,116943.30
2023-02-28T11:52:12.490Z,116943.30
2023-02-28T11:53:15.565Z,116943.30
2023-02-28T11:54:19.038Z,116943.30
2023-02-28T11:55:22.435Z,116943.30
2023-02-28T11:56:25.533Z,116943.30
2023-02-28T11:57:28.289Z,116943.30
2023-02-28T11:58:31.558Z,116943.30
2023-02-28T11:59:34.454Z,116943.30
2023-02-28T12:00:37.513Z,116943.30
2023-02-28T12:01:40.713Z,116943.30
2023-02-28T12:02:44.411Z,116943.30
2023-02-28T12:03:47.891Z,116943.30
2023-02-28T12:04:51.262Z,116943.30
2023-02-28T12:05:54.582Z,116943.30
2023-02-28T12:06:57.653Z,116943.30
2023-02-28T12:08:01.327Z,116943.30
2023-02-28T12:09:04.516Z,116943.30
2023-02-28T12:10:07.605Z,116943.30
2023-02-28T12:11:10.678Z,116943.30
2023-02-28T12:12:13.848Z,116943.30
2023-02-28T12:13:17.236Z,116943.30
2023-02-28T12:14:20.017Z,116943.30
2023-02-28T12:15:23.197Z,116943.30
2023-02-28T12:16:26.437Z,116943.30
2023-02-28T12:17:29.344Z,116943.30
2023-02-28T12:18:32.953Z,116943.30
2023-02-28T12:19:36.123Z,116943.30
2023-02-28T12:20:38.996Z,116943.30
2023-02-28T12:21:41.774Z,116943.30